Parkside, New York
Current Conditions -  °F | °C
As of 6:51 PM on Sunday 23 Nov 2014 (Local Time) from KLGA Reporting Station
Broken Clouds Broken Clouds  
Wind Chill: 51°   Ceiling: 25000
Heat Index: 51°   Visibility: 10mi
Dew Point: 35°   Wind: 7mph
Humidity: 54%   Direction: 170°S
Pressure: 30.13"   Gusts: NA
Location:  40.7228°N, 73.845°W
Report Text: KLGA 232351Z 17006KT 10SM FEW100 BKN250 11/02 A3013 RMK AO2 SLP201 T01060017 10128 20100 58001
Loading
Personal Weather Stations






























Interactive Weather Map New forecast layout! Learn more

10-Day Weather Forecast

Advertisements
Track Severe Weather on mobile